Time;durP1;ratioP1;P1;durP2;ratioP2;P2;SDS_P1;SDS_P2;PMS_P1;PMS_P2;Temp;Humidity;BMP_temperature;BMP_pressure;BME280_temperature;BME280_humidity;BME280_pressure;Samples;Min_cycle;Max_cycle;Signal;HPM_P1;HPM_P2
2022/04/07 00:01:57;;;;;;;14.32;3.92;;;;;;;8.33;100.00;99134.44;5067573;28;20032;-70
2022/04/07 00:04:22;;;;;;;16.45;3.90;;;;;;;8.41;100.00;99142.22;5067335;28;20025;-71
2022/04/07 00:06:47;;;;;;;14.70;3.60;;;;;;;8.38;100.00;99132.59;5066706;28;20028;-67
2022/04/07 00:09:13;;;;;;;17.10;3.85;;;;;;;8.30;100.00;99125.69;5065671;28;20048;-67
2022/04/07 00:11:38;;;;;;;14.65;3.58;;;;;;;8.23;100.00;99127.56;5067580;28;20052;-67
2022/04/07 00:14:04;;;;;;;15.05;3.63;;;;;;;8.30;100.00;99108.16;5064817;28;20033;-67
2022/04/07 00:16:29;;;;;;;15.32;3.90;;;;;;;8.27;100.00;99112.59;5067843;28;20038;-66
2022/04/07 00:18:54;;;;;;;17.92;3.67;;;;;;;8.24;100.00;99099.47;5065547;28;20126;-67
2022/04/07 00:21:25;;;;;;;15.45;3.53;;;;;;;8.29;100.00;99106.41;5066618;28;20032;-67
2022/04/07 00:23:52;;;;;;;14.70;3.55;;;;;;;8.29;100.00;99118.72;5065857;28;20106;-66
2022/04/07 00:26:17;;;;;;;14.15;3.45;;;;;;;8.32;100.00;99106.38;5065617;28;20025;-66
2022/04/07 00:28:43;;;;;;;18.17;3.60;;;;;;;8.29;100.00;99106.41;5049248;28;20112;-67
2022/04/07 00:31:10;;;;;;;16.40;4.20;;;;;;;8.18;100.00;99089.88;5064676;28;20372;-67
2022/04/07 00:33:35;;;;;;;14.57;3.88;;;;;;;8.00;100.00;99073.47;5067917;28;20071;-67
2022/04/07 00:36:03;;;;;;;19.00;4.20;;;;;;;7.79;100.00;99068.47;5064334;28;20379;-67
2022/04/07 00:38:28;;;;;;;16.02;3.95;;;;;;;7.69;100.00;99067.72;5067139;28;20107;-67
2022/04/07 00:40:53;;;;;;;18.90;4.30;;;;;;;7.57;100.00;99071.38;5046895;28;20460;-67
2022/04/07 00:43:33;;;;;;;14.90;4.20;;;;;;;7.58;100.00;99054.69;5062961;28;20029;-67
2022/04/07 00:46:00;;;;;;;17.95;4.00;;;;;;;7.62;100.00;99051.16;5060282;28;20024;-67
2022/04/07 00:48:26;;;;;;;18.27;4.55;;;;;;;7.61;100.00;99044.13;5059872;28;20196;-67
2022/04/07 00:50:56;;;;;;;17.75;4.40;;;;;;;7.57;100.00;99063.50;5049561;28;20111;-69
2022/04/07 00:53:23;;;;;;;18.45;4.75;;;;;;;7.56;100.00;99040.72;5064886;28;20071;-75
2022/04/07 00:55:51;;;;;;;18.13;4.75;;;;;;;7.62;100.00;99035.38;5065806;28;20049;-75
2022/04/07 00:58:18;;;;;;;18.95;5.00;;;;;;;7.57;100.00;99031.06;5065277;28;20032;-69
2022/04/07 01:00:43;;;;;;;18.10;5.00;;;;;;;7.53;100.00;99024.97;5065967;28;20029;-69
2022/04/07 01:03:09;;;;;;;19.52;5.13;;;;;;;7.54;100.00;99016.16;5064129;28;20353;-69
2022/04/07 01:05:35;;;;;;;18.83;5.32;;;;;;;7.54;100.00;99026.69;5065445;28;20040;-68
2022/04/07 01:08:01;;;;;;;19.50;5.30;;;;;;;7.54;100.00;99031.09;5063997;28;20066;-68
2022/04/07 01:10:26;;;;;;;18.83;5.43;;;;;;;7.42;100.00;99016.34;5066961;28;20028;-68
2022/04/07 01:12:52;;;;;;;20.52;5.47;;;;;;;7.41;100.00;99006.69;5063909;28;20155;-74
2022/04/07 01:15:17;;;;;;;20.33;5.57;;;;;;;7.35;100.00;99017.28;5066518;28;20020;-68
2022/04/07 01:17:43;;;;;;;18.90;5.35;;;;;;;7.35;100.00;98991.00;5064596;28;20028;-68
2022/04/07 01:20:10;;;;;;;19.27;5.70;;;;;;;7.34;100.00;98990.16;5065409;28;20025;-68
2022/04/07 01:22:38;;;;;;;19.95;5.32;;;;;;;7.33;100.00;98986.63;5065584;28;20376;-69
2022/04/07 01:25:04;;;;;;;23.23;5.85;;;;;;;7.34;100.00;98987.53;5064268;28;20025;-68
2022/04/07 01:27:30;;;;;;;19.35;5.40;;;;;;;7.29;100.00;98984.91;5066447;28;20032;-68
2022/04/07 01:29:56;;;;;;;20.30;5.50;;;;;;;7.37;100.00;98978.69;5063154;28;20028;-72
2022/04/07 01:32:53;;;;;;;19.45;5.30;;;;;;;7.39;100.00;98974.31;5066482;28;20016;-72
2022/04/07 01:35:21;;;;;;;19.38;5.15;;;;;;;7.46;100.00;98970.72;5003895;28;20420;-72
2022/04/07 01:37:48;;;;;;;21.77;5.30;;;;;;;7.48;100.00;98955.78;5003558;28;20034;-71
2022/04/07 01:40:16;;;;;;;20.10;5.18;;;;;;;7.55;100.00;98954.81;5008681;28;20073;-72
2022/04/07 01:42:45;;;;;;;18.83;5.00;;;;;;;7.52;100.00;98943.47;5004321;28;20029;-72
2022/04/07 01:45:11;;;;;;;21.95;5.07;;;;;;;7.48;100.00;98950.53;5003895;28;20041;-72
2022/04/07 01:47:39;;;;;;;18.63;4.80;;;;;;;7.56;100.00;98946.03;5003378;28;20030;-71
2022/04/07 01:50:07;;;;;;;20.42;5.50;;;;;;;7.53;100.00;98930.31;5003576;28;20116;-71
2022/04/07 01:52:38;;;;;;;21.00;5.32;;;;;;;7.54;100.00;98934.66;5004125;28;20062;-70
2022/04/07 01:55:04;;;;;;;20.70;5.25;;;;;;;7.66;100.00;98931.88;5003658;28;20125;-72
2022/04/07 01:57:31;;;;;;;21.65;5.10;;;;;;;7.71;100.00;98933.56;5001670;28;20568;-72
2022/04/07 01:59:58;;;;;;;18.35;4.80;;;;;;;7.76;100.00;98911.56;5004067;28;20033;-69
2022/04/07 02:02:24;;;;;;;19.27;5.05;;;;;;;7.72;100.00;98912.50;5003039;28;20449;-72
2022/04/07 02:05:00;;;;;;;18.50;4.80;;;;;;;7.75;100.00;98915.09;5000989;28;20120;-69
2022/04/07 02:07:30;;;;;;;20.85;5.05;;;;;;;7.67;100.00;98928.38;4998681;28;20495;-70
2022/04/07 02:09:56;;;;;;;21.80;4.90;;;;;;;7.60;100.00;98913.56;5003658;28;20026;-67
2022/04/07 02:12:21;;;;;;;20.98;5.28;;;;;;;7.65;100.00;98908.22;5049781;28;20390;-67
2022/04/07 02:14:48;;;;;;;19.35;4.95;;;;;;;7.67;100.00;98917.84;5065536;28;20016;-67
2022/04/07 02:17:20;;;;;;;21.10;4.60;;;;;;;7.75;100.00;98908.97;5062549;28;20490;-67
2022/04/07 02:19:53;;;;;;;;;;;;;;;7.85;100.00;98906.16;5063507;28;20037;-67
2022/04/07 02:22:19;;;;;;;20.98;4.65;;;;;;;7.89;100.00;98891.19;5059887;28;19953;-67
2022/04/07 02:24:45;;;;;;;22.00;4.93;;;;;;;7.96;100.00;98878.81;5065913;28;20033;-67
2022/04/07 02:27:11;;;;;;;20.00;4.50;;;;;;;8.06;100.00;98866.38;5062241;28;20063;-67
2022/04/07 02:29:36;;;;;;;19.40;4.38;;;;;;;8.18;100.00;98889.84;5064907;28;20032;-67
2022/04/07 02:32:02;;;;;;;20.02;4.28;;;;;;;8.29;100.00;98897.56;5063217;28;20020;-67
2022/04/07 02:34:28;;;;;;;20.70;4.65;;;;;;;8.30;100.00;98881.75;5063714;28;20037;-67
2022/04/07 02:36:54;;;;;;;19.40;4.10;;;;;;;8.32;100.00;98906.28;5064168;28;20375;-67
2022/04/07 02:39:19;;;;;;;18.35;4.18;;;;;;;8.38;100.00;98864.03;5062135;28;20029;-67
2022/04/07 02:41:44;;;;;;;17.58;4.05;;;;;;;8.38;100.00;98842.13;5065461;28;20247;-67
2022/04/07 02:44:10;;;;;;;18.17;4.15;;;;;;;8.43;100.00;98881.53;5062067;28;20021;-67
2022/04/07 02:46:35;;;;;;;21.95;4.20;;;;;;;8.56;100.00;98885.69;5046417;28;20081;-67
2022/04/07 02:49:01;;;;;;;18.98;4.22;;;;;;;8.53;100.00;98862.94;5062429;28;20024;-67
2022/04/07 02:51:26;;;;;;;19.48;4.32;;;;;;;8.57;100.00;98853.19;5063792;28;20041;-67
2022/04/07 02:53:57;;;;;;;17.50;4.30;;;;;;;8.58;100.00;98839.16;5063341;28;20021;-67
2022/04/07 02:56:23;;;;;;;18.85;4.20;;;;;;;8.56;100.00;98830.38;5063088;28;20046;-67
2022/04/07 02:58:48;;;;;;;17.98;4.07;;;;;;;8.59;100.00;98824.19;5063817;28;20025;-67
2022/04/07 03:01:14;;;;;;;19.50;4.50;;;;;;;8.56;100.00;98811.94;5062031;28;20037;-67
2022/04/07 03:03:40;;;;;;;17.35;4.22;;;;;;;8.63;100.00;98817.97;5064765;28;20044;-67
2022/04/07 03:06:05;;;;;;;21.50;4.57;;;;;;;8.69;100.00;98862.63;5061666;28;20025;-67
2022/04/07 03:08:32;;;;;;;19.35;4.15;;;;;;;8.73;100.00;98807.22;5065138;28;20028;-67
2022/04/07 03:10:58;;;;;;;20.20;4.40;;;;;;;8.72;100.00;98804.59;5062251;28;20142;-66
2022/04/07 03:13:24;;;;;;;17.52;4.30;;;;;;;8.74;100.00;98787.03;5063904;28;20049;-67
2022/04/07 03:15:49;;;;;;;20.27;4.50;;;;;;;8.74;100.00;98781.75;5062799;28;20029;-67
2022/04/07 03:18:15;;;;;;;19.33;4.30;;;;;;;8.78;100.00;98779.91;5062773;28;20472;-66
2022/04/07 03:20:40;;;;;;;17.48;4.22;;;;;;;8.82;100.00;98768.41;5064220;28;20020;-66
2022/04/07 03:23:05;;;;;;;19.48;4.15;;;;;;;8.88;100.00;98760.38;5061699;28;20104;-66
2022/04/07 03:25:31;;;;;;;19.58;4.15;;;;;;;8.88;100.00;98769.16;5064839;28;20024;-66
2022/04/07 03:27:56;;;;;;;18.77;4.05;;;;;;;8.90;100.00;98764.72;5061508;28;20036;-67
2022/04/07 03:30:22;;;;;;;17.35;3.92;;;;;;;8.93;100.00;98766.41;5063447;28;20439;-67
2022/04/07 03:32:47;;;;;;;19.02;4.13;;;;;;;8.89;100.00;98754.19;5062890;28;20020;-66
2022/04/07 03:35:13;;;;;;;20.98;4.20;;;;;;;8.82;100.00;98744.69;5043985;28;20100;-66
2022/04/07 03:37:39;;;;;;;21.13;4.13;;;;;;;8.86;100.00;98749.84;5064411;28;20517;-66
2022/04/07 03:40:04;;;;;;;19.65;4.00;;;;;;;8.90;100.00;98758.59;5060956;28;20488;-66
2022/04/07 03:42:30;;;;;;;17.00;3.70;;;;;;;8.94;100.00;98757.63;5063985;28;20029;-66
2022/04/07 03:44:55;;;;;;;19.23;4.00;;;;;;;8.90;100.00;98729.59;5059443;28;20031;-66
2022/04/07 03:47:20;;;;;;;19.98;4.10;;;;;;;8.86;100.00;98749.84;5061493;28;20032;-68
2022/04/07 03:49:46;;;;;;;20.40;4.43;;;;;;;8.84;100.00;98732.34;5063103;28;20174;-67
2022/04/07 03:52:11;;;;;;;17.15;4.18;;;;;;;8.81;100.00;98725.41;5062718;28;20032;-67
2022/04/07 03:54:36;;;;;;;19.10;4.10;;;;;;;8.85;100.00;98715.66;5061936;28;20421;-68
2022/04/07 03:57:02;;;;;;;16.48;3.83;;;;;;;8.87;100.00;98719.13;5063659;28;20449;-67
2022/04/07 03:59:28;;;;;;;18.75;4.10;;;;;;;8.93;100.00;98692.63;5060800;28;20094;-67
2022/04/07 04:01:54;;;;;;;18.02;4.05;;;;;;;8.80;100.00;98705.22;5056395;28;20021;-69
2022/04/07 04:04:22;;;;;;;19.63;4.20;;;;;;;8.63;100.00;98705.56;5064643;28;20021;-69
2022/04/07 04:06:47;;;;;;;18.42;4.10;;;;;;;8.73;100.00;98672.88;5060721;28;20059;-67
2022/04/07 04:09:12;;;;;;;19.60;4.00;;;;;;;8.75;100.00;98672.81;5063382;28;20021;-67
2022/04/07 04:11:38;;;;;;;18.10;3.88;;;;;;;8.79;100.00;98647.28;5062843;28;20423;-67
2022/04/07 04:14:04;;;;;;;16.63;3.85;;;;;;;8.83;100.00;98644.53;5065178;28;20025;-68
2022/04/07 04:16:30;;;;;;;17.90;3.80;;;;;;;8.87;100.00;98653.25;5076676;28;20479;-68
2022/04/07 04:18:56;;;;;;;17.25;3.88;;;;;;;8.87;100.00;98632.19;5069919;28;20040;-70
2022/04/07 04:21:22;;;;;;;19.08;3.90;;;;;;;8.91;100.00;98615.38;5068792;28;20483;-68
2022/04/07 04:23:48;;;;;;;15.05;3.60;;;;;;;8.88;100.00;98586.47;5063440;28;20057;-74
2022/04/07 04:26:13;;;;;;;16.15;3.70;;;;;;;8.84;100.00;98576.91;5046082;28;20033;-69
2022/04/07 04:28:39;;;;;;;15.88;3.67;;;;;;;8.88;100.00;98592.63;5062313;28;20021;-74
2022/04/07 04:31:04;;;;;;;16.35;3.63;;;;;;;8.97;100.00;98606.44;5061831;28;20025;-72
2022/04/07 04:33:29;;;;;;;14.98;3.33;;;;;;;9.04;100.00;98585.19;5063585;28;20177;-78
2022/04/07 04:35:54;;;;;;;15.07;3.45;;;;;;;9.04;100.00;98590.47;5060299;28;20029;-72
2022/04/07 04:38:20;;;;;;;16.90;3.50;;;;;;;8.96;100.00;98591.56;5064733;28;20105;-71
2022/04/07 04:40:45;;;;;;;17.83;3.40;;;;;;;8.95;100.00;98569.59;5064966;28;20099;-68
2022/04/07 04:43:10;;;;;;;16.67;3.53;;;;;;;8.74;100.00;98563.09;5066133;28;20025;-68
2022/04/07 04:45:36;;;;;;;14.35;3.30;;;;;;;8.61;100.00;98570.44;5066681;28;20032;-73
2022/04/07 04:48:02;;;;;;;13.98;3.55;;;;;;;8.38;100.00;98576.19;5065927;28;20028;-68
2022/04/07 04:50:27;;;;;;;13.43;3.40;;;;;;;8.19;100.00;98559.97;5065202;28;20087;-69
2022/04/07 04:52:53;;;;;;;15.02;3.42;;;;;;;8.14;100.00;98548.66;5067068;28;20024;-72
2022/04/07 04:55:19;;;;;;;16.58;3.60;;;;;;;8.04;100.00;98532.22;5063967;28;20021;-72
2022/04/07 04:57:44;;;;;;;14.73;3.83;;;;;;;7.90;100.00;98545.66;5066894;28;20047;-69
2022/04/07 05:00:11;;;;;;;12.13;3.40;;;;;;;7.87;100.00;98531.72;5064827;28;20025;-73
2022/04/07 05:02:39;;;;;;;13.35;3.72;;;;;;;7.87;100.00;98522.06;5066195;28;20021;-73
2022/04/07 05:05:06;;;;;;;10.63;3.40;;;;;;;7.81;100.00;98493.25;5066264;28;20033;-73
2022/04/07 05:07:31;;;;;;;16.02;3.55;;;;;;;7.78;100.00;98485.44;5064900;28;20025;-72
2022/04/07 05:09:56;;;;;;;12.07;3.30;;;;;;;7.80;100.00;98486.25;5064982;28;20040;-72
2022/04/07 05:12:22;;;;;;;12.65;3.50;;;;;;;7.78;100.00;98493.34;5066025;28;20024;-71
2022/04/07 05:14:47;;;;;;;9.88;3.33;;;;;;;7.85;100.00;98497.56;5063924;28;20074;-72
2022/04/07 05:17:12;;;;;;;12.75;3.53;;;;;;;7.88;100.00;98493.97;5066692;28;20032;-71
2022/04/07 05:19:38;;;;;;;11.30;3.30;;;;;;;7.97;100.00;98499.91;5063929;28;20029;-72
2022/04/07 05:22:04;;;;;;;14.27;3.40;;;;;;;7.98;100.00;98470.06;5066098;28;20360;-72
2022/04/07 05:24:29;;;;;;;11.77;3.30;;;;;;;7.99;100.00;98450.78;5066405;28;20017;-72
2022/04/07 05:26:55;;;;;;;13.00;3.42;;;;;;;7.94;100.00;98457.88;5059928;28;20186;-66
2022/04/07 05:29:20;;;;;;;12.40;3.50;;;;;;;7.85;100.00;98447.59;5055797;28;20052;-67
2022/04/07 05:31:45;;;;;;;12.55;3.70;;;;;;;7.79;100.00;98443.31;5061553;28;20474;-68
2022/04/07 05:34:13;;;;;;;14.45;4.05;;;;;;;7.68;100.00;98435.66;5055947;28;20024;-68
2022/04/07 05:36:39;;;;;;;16.00;4.20;;;;;;;7.59;100.00;98435.88;5057847;28;20029;-68
2022/04/07 05:39:05;;;;;;;15.45;4.43;;;;;;;7.60;100.00;98477.06;5057442;28;20040;-68
2022/04/07 05:41:31;;;;;;;17.30;4.65;;;;;;;7.54;100.00;98448.25;5054790;28;20028;-68
2022/04/07 05:43:56;;;;;;;19.45;5.53;;;;;;;7.49;100.00;98415.94;5059229;28;20120;-68
2022/04/07 05:46:21;;;;;;;17.88;5.10;;;;;;;7.43;100.00;98410.81;5037424;28;20483;-69
2022/04/07 05:48:47;;;;;;;17.95;5.38;;;;;;;7.43;100.00;98419.56;5059845;28;20033;-69
2022/04/07 05:51:13;;;;;;;19.83;5.53;;;;;;;7.43;100.00;98403.78;5054763;28;20022;-69
2022/04/07 05:53:39;;;;;;;17.35;5.68;;;;;;;7.38;100.00;98384.59;5055456;28;20021;-71
2022/04/07 05:56:04;;;;;;;19.65;6.10;;;;;;;7.34;100.00;98377.72;5057472;28;20036;-73
2022/04/07 05:58:30;;;;;;;19.55;6.10;;;;;;;7.34;100.00;98380.34;5052847;28;20490;-70
2022/04/07 06:00:55;;;;;;;19.38;5.97;;;;;;;7.36;100.00;98380.31;5057540;28;20905;-73
2022/04/07 06:03:21;;;;;;;20.55;5.95;;;;;;;7.36;100.00;98367.16;5057560;28;20025;-71
2022/04/07 06:05:52;;;;;;;21.55;6.90;;;;;;;7.31;100.00;98346.22;5059009;28;20033;-70
2022/04/07 06:08:18;;;;;;;20.47;6.77;;;;;;;7.25;100.00;98359.50;5056565;28;20024;-69
2022/04/07 06:10:43;;;;;;;21.42;6.55;;;;;;;7.27;100.00;98349.84;5050600;28;20375;-70
2022/04/07 06:13:09;;;;;;;20.80;6.63;;;;;;;7.25;100.00;98331.47;5050596;28;20107;-71
2022/04/07 06:15:34;;;;;;;22.05;6.75;;;;;;;7.26;100.00;98346.31;5058469;28;20103;-69
2022/04/07 06:18:00;;;;;;;21.35;6.97;;;;;;;7.19;100.00;98315.81;5057346;28;20043;-69
2022/04/07 06:20:25;;;;;;;21.42;6.88;;;;;;;7.20;100.00;98322.81;5058776;28;20090;-69
2022/04/07 06:22:50;;;;;;;20.45;6.35;;;;;;;7.17;100.00;98345.69;5053232;28;20414;-70
2022/04/07 06:25:16;;;;;;;18.23;5.70;;;;;;;7.19;100.00;98299.19;5057295;28;20032;-69
2022/04/07 06:27:44;;;;;;;22.02;6.57;;;;;;;7.19;100.00;98297.44;5058865;28;20379;-71
2022/04/07 06:30:11;;;;;;;21.73;6.75;;;;;;;7.20;100.00;98295.69;5056122;28;20115;-70
2022/04/07 06:32:38;;;;;;;19.23;5.93;;;;;;;7.15;100.00;98307.16;5054516;28;20378;-70
2022/04/07 06:35:05;;;;;;;20.10;5.80;;;;;;;7.15;100.00;98280.03;5058285;28;20028;-69
2022/04/07 06:37:30;;;;;;;19.80;5.25;;;;;;;7.18;100.00;98287.84;5053814;28;20068;-69
2022/04/07 06:40:00;;;;;;;19.77;5.05;;;;;;;7.22;100.00;98268.44;5057464;28;20052;-69
2022/04/07 06:42:25;;;;;;;17.75;5.03;;;;;;;7.18;100.00;98265.94;5059007;28;20506;-71
2022/04/07 06:44:51;;;;;;;17.88;5.03;;;;;;;7.11;100.00;98259.97;5057994;28;20033;-72
2022/04/07 06:47:16;;;;;;;18.88;4.60;;;;;;;7.18;100.00;98265.94;5056010;28;20024;-71
2022/04/07 06:49:41;;;;;;;16.75;4.45;;;;;;;7.18;100.00;98252.81;5048556;28;20025;-70
2022/04/07 06:52:07;;;;;;;19.48;4.43;;;;;;;7.20;100.00;98233.47;5033823;28;20073;-72
2022/04/07 06:54:32;;;;;;;18.83;4.40;;;;;;;7.16;100.00;98226.56;5050458;28;20367;-70
2022/04/07 06:56:58;;;;;;;20.30;4.78;;;;;;;7.11;100.00;98224.03;5047863;28;20083;-69
2022/04/07 06:59:23;;;;;;;20.60;4.65;;;;;;;7.11;100.00;98217.94;5050283;28;20024;-69
2022/04/07 07:01:48;;;;;;;17.48;4.40;;;;;;;7.17;100.00;98202.03;5042919;28;20045;-71
2022/04/07 07:04:13;;;;;;;19.63;4.72;;;;;;;7.15;100.00;98193.34;5050942;28;20497;-69
2022/04/07 07:06:39;;;;;;;19.15;4.22;;;;;;;7.13;100.00;98172.31;5046496;28;20017;-71
2022/04/07 07:09:04;;;;;;;20.08;4.60;;;;;;;7.12;100.00;98180.22;5047581;28;20025;-70
2022/04/07 07:11:29;;;;;;;18.65;4.70;;;;;;;7.08;100.00;98161.06;5047202;28;20467;-71
2022/04/07 07:13:55;;;;;;;18.38;4.93;;;;;;;7.12;100.00;98161.84;5049371;28;20125;-68
2022/04/07 07:16:20;;;;;;;19.58;4.70;;;;;;;7.11;100.00;98150.50;5055004;28;20031;-68
2022/04/07 07:18:45;;;;;;;19.27;5.15;;;;;;;7.09;100.00;98147.03;5052861;28;20099;-67
2022/04/07 07:21:11;;;;;;;17.80;5.00;;;;;;;7.17;100.00;98131.09;5052879;28;20365;-67
2022/04/07 07:23:36;;;;;;;17.98;4.88;;;;;;;7.15;100.00;98119.75;5058528;28;20036;-67
2022/04/07 07:26:01;;;;;;;18.67;4.45;;;;;;;7.22;100.00;98144.94;5054814;28;20028;-67
2022/04/07 07:28:27;;;;;;;17.05;4.45;;;;;;;7.22;100.00;98104.69;5051738;28;20514;-67
2022/04/07 07:30:52;;;;;;;20.10;4.75;;;;;;;7.24;100.00;98098.50;5058405;28;20021;-67
2022/04/07 07:33:18;;;;;;;18.65;4.82;;;;;;;7.28;100.00;98071.25;5057802;28;20074;-71
2022/04/07 07:35:45;;;;;;;18.13;4.90;;;;;;;7.35;100.00;98085.06;5057523;28;20391;-69
2022/04/07 07:38:11;;;;;;;17.63;5.10;;;;;;;7.40;100.00;98080.56;5032962;28;20064;-69
2022/04/07 07:40:36;;;;;;;17.70;5.10;;;;;;;7.44;100.00;98092.72;5058271;28;20029;-68
2022/04/07 07:43:02;;;;;;;17.35;5.35;;;;;;;7.44;100.00;98104.97;5056974;28;20021;-68
2022/04/07 07:45:30;;;;;;;19.35;5.57;;;;;;;7.47;100.00;98120.66;5060486;28;20033;-69
2022/04/07 07:47:56;;;;;;;12.00;3.33;;;;;;;7.17;100.00;98188.88;5062639;28;20065;-68
2022/04/07 07:50:21;;;;;;;10.63;2.55;;;;;;;6.70;100.00;98240.72;5045018;28;20106;-71
2022/04/07 07:52:47;;;;;;;8.60;2.13;;;;;;;6.21;100.00;98267.06;5061003;28;20040;-68
2022/04/07 07:55:13;;;;;;;7.57;2.00;;;;;;;5.78;100.00;98257.31;5064756;28;20060;-69
2022/04/07 07:57:38;;;;;;;10.40;2.40;;;;;;;5.26;100.00;98281.75;5060724;28;20439;-68
2022/04/07 08:00:07;;;;;;;9.57;2.60;;;;;;;5.31;100.00;98248.50;5063633;28;20021;-68
2022/04/07 08:02:34;;;;;;;10.43;2.72;;;;;;;5.18;100.00;98246.03;5060716;28;20032;-68
2022/04/07 08:05:00;;;;;;;13.48;3.53;;;;;;;5.16;100.00;98237.38;5061123;28;20353;-68
2022/04/07 08:07:26;;;;;;;10.48;3.00;;;;;;;5.00;100.00;98220.16;5063529;28;20025;-68
2022/04/07 08:09:51;;;;;;;16.50;3.60;;;;;;;4.82;100.00;98264.03;5062533;28;20032;-69
2022/04/07 08:12:16;;;;;;;17.33;4.40;;;;;;;4.86;100.00;98217.72;5062144;28;20031;-71
2022/04/07 08:14:42;;;;;;;16.27;3.50;;;;;;;4.75;100.00;98224.88;5064323;28;20151;-70
2022/04/07 08:17:07;;;;;;;15.50;3.60;;;;;;;4.81;100.00;98227.41;5068027;28;20028;-72
2022/04/07 08:19:35;;;;;;;16.42;3.22;;;;;;;4.82;100.00;98227.41;5064523;28;20119;-70
2022/04/07 08:22:01;;;;;;;14.90;3.47;;;;;;;5.10;100.00;98215.63;5067781;28;20031;-69
2022/04/07 08:24:26;;;;;;;16.45;3.60;;;;;;;5.18;100.00;98230.34;5065822;28;20024;-68
2022/04/07 08:26:51;;;;;;;13.88;3.25;;;;;;;5.28;100.00;98238.06;5066458;28;20060;-68
2022/04/07 08:29:17;;;;;;;14.07;3.42;;;;;;;5.41;100.00;98227.34;5066591;28;20086;-68
2022/04/07 08:31:43;;;;;;;16.60;3.50;;;;;;;5.41;100.00;98216.00;5064680;28;20021;-70
2022/04/07 08:34:08;;;;;;;16.70;3.65;;;;;;;5.58;100.00;98219.22;5067526;28;20486;-69
2022/04/07 08:36:34;;;;;;;16.48;3.30;;;;;;;5.63;100.00;98223.53;5064208;28;20033;-68
2022/04/07 08:38:59;;;;;;;14.85;3.58;;;;;;;5.83;100.00;98237.13;5067871;28;20027;-67
2022/04/07 08:41:31;;;;;;;17.45;3.80;;;;;;;5.83;100.00;98237.13;5064952;28;20017;-67
2022/04/07 08:43:59;;;;;;;14.52;3.72;;;;;;;5.92;100.00;98228.25;5067497;28;20366;-67
2022/04/07 08:46:27;;;;;;;15.98;4.00;;;;;;;6.02;100.00;98214.09;5064727;28;20116;-67
2022/04/07 08:48:56;;;;;;;17.05;3.90;;;;;;;6.09;100.00;98214.84;5066453;28;20104;-67
2022/04/07 08:51:21;;;;;;;15.82;4.10;;;;;;;6.27;100.00;98203.13;5065252;28;20421;-68
2022/04/07 08:53:47;;;;;;;15.60;3.90;;;;;;;6.34;100.00;98199.47;5065685;28;20017;-67
2022/04/07 08:56:13;;;;;;;15.23;3.50;;;;;;;6.45;100.00;98207.09;5066110;28;20463;-68
2022/04/07 08:58:38;;;;;;;16.50;3.90;;;;;;;6.70;100.00;98206.59;5064264;28;20078;-65
2022/04/07 09:01:04;;;;;;;18.70;4.40;;;;;;;6.93;100.00;98211.31;5067261;28;20025;-68
2022/04/07 09:03:29;;;;;;;16.45;4.35;;;;;;;7.21;100.00;98218.56;5064923;28;20063;-66
2022/04/07 09:05:59;;;;;;;17.85;5.07;;;;;;;7.67;100.00;98205.16;5063891;28;20103;-65
2022/04/07 09:08:54;;;;;;;16.77;4.50;;;;;;;7.86;100.00;98223.06;5060425;28;20033;-65
2022/04/07 09:11:21;;;;;;;13.40;3.95;;;;;;;7.88;100.00;98210.78;5004833;28;20048;-65
2022/04/07 09:13:47;;;;;;;15.73;3.90;;;;;;;7.94;100.00;98229.00;5002281;28;20030;-66
2022/04/07 09:16:14;;;;;;;13.98;3.70;;;;;;;7.89;100.00;98209.00;5000984;28;20038;-66
2022/04/07 09:18:45;;;;;;;14.98;3.92;;;;;;;8.63;100.00;98231.50;5004952;28;20506;-65
2022/04/07 09:21:24;;;;;;;13.45;3.38;;;;;;;8.95;100.00;98215.66;5001434;28;20128;-65
2022/04/07 09:23:52;;;;;;;11.82;3.10;;;;;;;9.08;100.00;98212.59;4998936;28;20452;-72
2022/04/07 09:26:17;;;;;;;13.18;3.40;;;;;;;9.39;100.00;98224.81;5003871;28;20034;-73
2022/04/07 09:28:43;;;;;;;14.73;3.63;;;;;;;9.46;100.00;98209.63;5001865;28;20121;-73
2022/04/07 09:31:13;;;;;;;12.15;3.40;;;;;;;9.43;100.00;98212.38;5004708;28;20045;-72
2022/04/07 09:33:39;;;;;;;14.10;3.78;;;;;;;9.31;100.00;98218.91;5002061;28;20057;-72
2022/04/07 09:36:11;;;;;;;14.30;3.88;;;;;;;9.52;100.00;98211.19;5004224;28;20141;-72
2022/04/07 09:38:40;;;;;;;12.55;3.63;;;;;;;9.43;100.00;98222.91;5002067;28;20041;-72
2022/04/07 09:41:08;;;;;;;11.55;3.25;;;;;;;9.13;100.00;98230.91;5004071;28;20066;-72
2022/04/07 09:43:48;;;;;;;14.50;3.92;;;;;;;9.39;100.00;98248.53;5002411;28;20113;-71
2022/04/07 09:46:15;;;;;;;13.65;3.70;;;;;;;9.29;100.00;98252.38;4997818;28;20038;-72
2022/04/07 09:49:10;;;;;;;15.07;3.60;;;;;;;10.01;100.00;98230.66;5060320;28;20033;-72
2022/04/07 09:51:50;;;;;;;15.52;3.53;;;;;;;10.60;100.00;98240.00;5065190;28;20025;-72
2022/04/07 09:54:17;;;;;;;12.50;3.25;;;;;;;11.16;100.00;98236.09;5059638;28;20028;-72
2022/04/07 09:56:43;;;;;;;12.32;3.10;;;;;;;11.62;100.00;98227.22;5058549;28;20374;-71
2022/04/07 09:59:10;;;;;;;14.10;3.05;;;;;;;11.62;100.00;98258.97;5065804;28;20467;-71
2022/04/07 10:01:39;;;;;;;13.60;2.80;;;;;;;11.50;100.00;98258.59;5061824;28;20383;-70
2022/04/07 10:04:08;;;;;;;11.68;2.80;;;;;;;11.80;100.00;98223.81;5059229;28;20021;-66
2022/04/07 10:06:35;;;;;;;12.90;2.80;;;;;;;11.70;100.00;98222.50;5059108;28;20045;-65
2022/04/07 10:09:03;;;;;;;14.57;3.42;;;;;;;11.71;100.00;98239.22;5065903;28;20475;-66
2022/04/07 10:11:31;;;;;;;15.75;3.40;;;;;;;11.96;100.00;98225.88;5062978;28;20428;-65
2022/04/07 10:13:57;;;;;;;15.52;3.40;;;;;;;11.79;100.00;98232.69;5065040;28;20127;-65
2022/04/07 10:16:23;;;;;;;13.80;3.20;;;;;;;12.02;100.00;98228.25;5063514;28;20122;-65
2022/04/07 10:18:56;;;;;;;12.32;2.90;;;;;;;12.35;100.00;98262.13;5063775;28;20031;-65
2022/04/07 10:21:46;;;;;;;13.73;2.90;;;;;;;12.50;100.00;98282.66;5063433;28;20050;-65
2022/04/07 10:24:18;;;;;;;12.70;2.78;;;;;;;11.71;100.00;98268.31;5060379;28;20020;-65
2022/04/07 10:26:46;;;;;;;12.82;2.63;;;;;;;11.63;100.00;98244.84;5064638;28;20051;-65
2022/04/07 10:29:20;;;;;;;13.57;2.60;;;;;;;12.31;100.00;98218.16;5062741;28;20063;-65
2022/04/07 10:32:10;;;;;;;14.82;2.85;;;;;;;12.59;100.00;98254.03;5064387;28;20028;-65
2022/04/07 10:34:37;;;;;;;15.45;2.80;;;;;;;11.39;100.00;98215.81;5058924;28;20052;-64
2022/04/07 10:37:06;;;;;;;12.68;2.85;;;;;;;10.94;100.00;98248.44;5057717;28;20464;-65
2022/04/07 10:39:32;;;;;;;14.40;2.90;;;;;;;10.61;100.00;98239.06;5047214;28;20024;-64
2022/04/07 10:41:58;;;;;;;13.50;2.80;;;;;;;10.60;100.00;98295.50;5062372;28;20025;-64
2022/04/07 10:44:25;;;;;;;15.80;2.60;;;;;;;10.40;100.00;98268.94;5064337;28;20112;-65
2022/04/07 10:47:06;;;;;;;18.27;3.28;;;;;;;11.18;100.00;98293.38;5063114;28;20032;-68
2022/04/07 10:49:32;;;;;;;17.65;3.00;;;;;;;11.03;100.00;98290.38;5065516;28;20020;-70
2022/04/07 10:51:59;;;;;;;16.40;3.20;;;;;;;11.20;100.00;98281.81;5062089;28;20059;-71
2022/04/07 10:54:28;;;;;;;18.90;3.10;;;;;;;12.34;100.00;98321.34;5063914;28;20498;-71
2022/04/07 10:56:59;;;;;;;14.82;2.78;;;;;;;12.60;100.00;98306.09;5044393;28;20047;-71
2022/04/07 10:59:27;;;;;;;15.35;2.83;;;;;;;12.79;98.46;98275.19;5064231;28;20032;-69
2022/04/07 11:02:05;;;;;;;16.75;2.90;;;;;;;12.76;100.00;98288.59;5061821;28;20025;-70
2022/04/07 11:04:41;;;;;;;18.42;3.03;;;;;;;12.02;100.00;98279.41;5058521;28;20031;-70
2022/04/07 11:07:15;;;;;;;15.82;2.70;;;;;;;11.84;100.00;98303.97;5064171;28;20032;-69
2022/04/07 11:09:40;;;;;;;18.23;3.03;;;;;;;12.00;100.00;98336.00;5063256;28;20083;-70
2022/04/07 11:12:31;;;;;;;14.55;2.63;;;;;;;13.16;100.00;98325.66;5063783;28;20029;-71
2022/04/07 11:15:03;;;;;;;18.50;3.03;;;;;;;13.80;92.38;98340.38;5057422;28;20076;-67
2022/04/07 11:17:35;;;;;;;16.20;2.83;;;;;;;13.25;89.09;98323.47;5057468;28;20375;-70
2022/04/07 11:20:05;;;;;;;15.82;2.88;;;;;;;13.09;92.06;98338.34;5057782;28;20479;-67
2022/04/07 11:22:57;;;;;;;13.95;2.83;;;;;;;12.93;91.31;98371.78;5058150;28;20029;-70
2022/04/07 11:25:36;;;;;;;17.30;3.38;;;;;;;12.81;90.22;98346.69;5061432;28;20471;-68